createdAt,value
2018-07-02T00:00:01.371Z,33.87
2018-07-02T00:02:29.717Z,33.81
2018-07-02T00:04:57.886Z,33.42
2018-07-02T00:07:27.098Z,33.97
2018-07-02T00:09:55.472Z,33.77
2018-07-02T00:12:24.365Z,34.36
2018-07-02T00:14:53.354Z,34.22
2018-07-02T00:17:21.534Z,33.53
2018-07-02T00:19:49.701Z,33.72
2018-07-02T00:22:17.966Z,33.77
2018-07-02T00:24:46.149Z,34.37
2018-07-02T00:27:14.334Z,33.35
2018-07-02T00:29:42.512Z,33.69
2018-07-02T00:32:10.670Z,34.14
2018-07-02T00:34:38.846Z,34.44
2018-07-02T00:37:07.018Z,34.10
2018-07-02T00:39:35.195Z,34.32
2018-07-02T00:42:03.391Z,34.65
2018-07-02T00:44:31.590Z,34.79
2018-07-02T00:46:59.762Z,34.57
2018-07-02T00:49:27.931Z,34.81
2018-07-02T00:51:56.115Z,33.92
2018-07-02T00:54:24.282Z,34.74
2018-07-02T00:56:52.461Z,34.27
2018-07-02T00:59:20.655Z,34.68
2018-07-02T01:01:48.853Z,34.56
2018-07-02T01:04:17.022Z,34.49
2018-07-02T01:06:45.194Z,35.20
2018-07-02T01:09:13.386Z,35.17
2018-07-02T01:11:41.854Z,34.59
2018-07-02T01:14:10.046Z,34.62
2018-07-02T01:16:38.255Z,34.78
2018-07-02T01:19:06.439Z,35.49
2018-07-02T01:21:34.605Z,34.70
2018-07-02T01:24:02.805Z,35.37
2018-07-02T01:26:30.978Z,35.29
2018-07-02T01:28:59.158Z,35.57
2018-07-02T01:31:27.332Z,36.50
2018-07-02T01:33:55.550Z,35.20
2018-07-02T01:36:23.698Z,35.84
2018-07-02T01:38:51.858Z,36.61
2018-07-02T01:41:20.039Z,35.63
2018-07-02T01:43:48.218Z,36.11
2018-07-02T01:46:16.404Z,36.44
2018-07-02T01:48:44.570Z,36.06
2018-07-02T01:51:12.771Z,36.21
2018-07-02T01:53:40.937Z,36.63
2018-07-02T01:56:09.102Z,36.24
2018-07-02T01:58:37.279Z,36.90
2018-07-02T02:01:05.458Z,36.92
2018-07-02T02:03:33.630Z,37.74
2018-07-02T02:06:01.806Z,37.28
2018-07-02T02:08:29.998Z,37.69
2018-07-02T02:10:58.191Z,38.05
2018-07-02T02:13:26.351Z,38.42
2018-07-02T02:15:54.511Z,37.86
2018-07-02T02:18:22.671Z,38.99
2018-07-02T02:20:50.838Z,38.75
2018-07-02T02:23:19.009Z,39.92
2018-07-02T02:25:47.222Z,39.47
2018-07-02T02:28:15.378Z,38.89
2018-07-02T02:30:43.559Z,39.38
2018-07-02T02:33:11.738Z,38.57
2018-07-02T02:35:39.937Z,39.52
2018-07-02T02:38:08.107Z,39.06
2018-07-02T02:40:36.275Z,39.59
2018-07-02T02:43:04.511Z,39.67
2018-07-02T02:45:32.710Z,39.16
2018-07-02T02:48:00.916Z,39.54
2018-07-02T02:50:29.082Z,39.88
2018-07-02T02:52:57.246Z,39.71
2018-07-02T02:55:25.422Z,39.90
2018-07-02T02:57:53.574Z,39.97
2018-07-02T03:00:21.738Z,39.63
2018-07-02T03:02:49.926Z,38.82
2018-07-02T03:05:24.387Z,38.84
2018-07-02T03:07:52.626Z,39.42
2018-07-02T03:10:20.795Z,39.48
2018-07-02T03:12:48.955Z,39.78
2018-07-02T03:15:17.113Z,39.79
2018-07-02T03:17:45.270Z,40.56
2018-07-02T03:20:13.452Z,40.80
2018-07-02T03:22:41.616Z,40.08
2018-07-02T03:25:09.766Z,40.71
2018-07-02T03:27:37.942Z,39.93
2018-07-02T03:30:06.323Z,39.83
2018-07-02T03:32:34.502Z,40.05
2018-07-02T03:35:02.670Z,39.87
2018-07-02T03:37:30.843Z,39.52
2018-07-02T03:39:58.993Z,39.31
2018-07-02T03:42:27.205Z,39.26
2018-07-02T03:44:55.350Z,38.75
2018-07-02T03:47:23.506Z,38.62
2018-07-02T03:49:51.653Z,38.42
2018-07-02T03:52:19.822Z,38.96
2018-07-02T03:54:48.030Z,39.31
2018-07-02T03:57:16.214Z,40.22
2018-07-02T03:59:44.366Z,38.67
2018-07-02T04:02:12.550Z,39.76
2018-07-02T04:04:40.732Z,39.97
2018-07-02T04:07:08.882Z,40.14
2018-07-02T04:09:37.068Z,40.75
2018-07-02T04:12:05.245Z,41.13
2018-07-02T04:14:33.398Z,41.21
2018-07-02T04:17:01.605Z,41.82
2018-07-02T04:19:29.758Z,40.56
2018-07-02T04:21:57.938Z,40.18
2018-07-02T04:24:26.146Z,40.44
2018-07-02T04:26:54.839Z,40.93
2018-07-02T04:29:23.015Z,41.51
2018-07-02T04:31:51.270Z,40.38
2018-07-02T04:34:19.454Z,42.03
2018-07-02T04:36:47.605Z,42.52
2018-07-02T04:39:15.856Z,40.51
2018-07-02T04:41:44.015Z,41.42
2018-07-02T04:44:12.222Z,41.88
2018-07-02T04:46:40.411Z,40.51
2018-07-02T04:49:08.574Z,41.52
2018-07-02T04:51:36.742Z,42.09
2018-07-02T04:54:04.922Z,42.66
2018-07-02T04:56:33.116Z,43.13
2018-07-02T04:59:01.302Z,41.71
2018-07-02T05:01:29.482Z,43.60
2018-07-02T05:03:57.664Z,42.81
2018-07-02T05:06:25.839Z,41.55
2018-07-02T05:08:54.026Z,43.06
2018-07-02T05:11:22.198Z,41.15
2018-07-02T05:13:50.346Z,41.03
2018-07-02T05:16:18.521Z,40.42
2018-07-02T05:18:46.666Z,39.90
2018-07-02T05:21:14.838Z,38.88
2018-07-02T05:23:43.026Z,40.34
2018-07-02T05:26:11.195Z,39.94
2018-07-02T05:28:39.358Z,38.31
2018-07-02T05:31:07.536Z,39.14
2018-07-02T05:33:35.702Z,39.77
2018-07-02T05:36:03.914Z,40.44
2018-07-02T05:38:32.086Z,39.69
2018-07-02T05:41:00.270Z,39.43
2018-07-02T05:43:28.442Z,38.46
2018-07-02T05:45:56.626Z,39.24
2018-07-02T05:48:24.800Z,39.19
2018-07-02T05:50:52.983Z,38.44
2018-07-02T05:53:21.150Z,40.22
2018-07-02T05:55:49.310Z,39.98
2018-07-02T05:58:17.478Z,39.21
2018-07-02T06:00:45.702Z,39.70
2018-07-02T06:03:13.874Z,39.53
2018-07-02T06:05:42.065Z,39.99
2018-07-02T06:08:10.338Z,39.41
2018-07-02T06:10:38.470Z,39.17
2018-07-02T06:13:06.645Z,39.80
2018-07-02T06:15:34.802Z,39.86
2018-07-02T06:18:02.990Z,39.46
2018-07-02T06:20:31.163Z,37.79
2018-07-02T06:22:59.338Z,38.66
2018-07-02T06:25:27.514Z,37.78
2018-07-02T06:27:55.666Z,39.27
2018-07-02T06:30:23.841Z,39.15
2018-07-02T06:32:52.138Z,38.84
2018-07-02T06:35:20.322Z,39.22
2018-07-02T06:37:48.742Z,37.52
2018-07-02T06:40:17.516Z,39.99
2018-07-02T06:42:45.671Z,37.86
2018-07-02T06:45:13.818Z,37.96
2018-07-02T06:47:42.010Z,37.56
2018-07-02T06:50:11.087Z,36.62
2018-07-02T06:52:39.250Z,36.87
2018-07-02T06:55:07.403Z,36.61
2018-07-02T06:57:35.565Z,36.41
2018-07-02T07:00:03.754Z,37.65
2018-07-02T07:02:31.899Z,36.56
2018-07-02T07:05:00.070Z,37.83
2018-07-02T07:07:28.218Z,35.83
2018-07-02T07:09:56.366Z,36.23
2018-07-02T07:12:24.515Z,36.48
2018-07-02T07:14:52.683Z,38.68
2018-07-02T07:17:20.837Z,36.03
2018-07-02T07:19:48.995Z,37.43
2018-07-02T07:22:17.182Z,35.84
2018-07-02T07:24:45.334Z,36.33
2018-07-02T07:27:13.510Z,36.69
2018-07-02T07:29:41.691Z,35.12
2018-07-02T07:32:09.846Z,35.59
2018-07-02T07:34:38.002Z,36.19
2018-07-02T07:37:06.166Z,36.73
2018-07-02T07:39:34.306Z,36.30
2018-07-02T07:42:02.492Z,37.42
2018-07-02T07:44:30.687Z,35.15
2018-07-02T07:46:58.858Z,36.26
2018-07-02T07:49:27.031Z,37.06
2018-07-02T07:51:55.182Z,36.48
2018-07-02T07:54:23.369Z,35.33
2018-07-02T07:56:51.902Z,34.44
2018-07-02T07:59:20.109Z,36.10
2018-07-02T08:01:48.251Z,35.59
2018-07-02T08:04:16.462Z,35.81
2018-07-02T08:06:44.639Z,33.82
2018-07-02T08:09:13.546Z,34.66
2018-07-02T08:11:42.138Z,35.77
2018-07-02T08:14:10.311Z,35.10
2018-07-02T08:16:38.502Z,34.46
2018-07-02T08:19:06.702Z,33.72
2018-07-02T08:21:34.855Z,34.13
2018-07-02T08:24:03.098Z,35.05
2018-07-02T08:26:31.271Z,34.66
2018-07-02T08:28:59.434Z,35.13
2018-07-02T08:31:27.606Z,34.71
2018-07-02T08:33:55.774Z,34.07
2018-07-02T08:36:23.968Z,35.09
2018-07-02T08:38:52.146Z,33.80
2018-07-02T08:41:20.356Z,32.15
2018-07-02T08:43:48.535Z,34.14
2018-07-02T08:46:16.699Z,33.87
2018-07-02T08:48:45.043Z,33.82
2018-07-02T08:51:13.260Z,33.23
2018-07-02T08:53:41.419Z,34.18
2018-07-02T08:56:09.573Z,31.12
2018-07-02T08:58:37.750Z,31.62
2018-07-02T09:01:06.050Z,31.99
2018-07-02T09:03:34.218Z,31.17
2018-07-02T09:06:02.408Z,30.85
2018-07-02T09:08:30.562Z,33.08
2018-07-02T09:10:58.814Z,31.41
2018-07-02T09:13:26.898Z,31.17
2018-07-02T09:15:55.058Z,33.04
2018-07-02T09:18:23.250Z,31.12
2018-07-02T09:20:51.414Z,29.37
2018-07-02T09:23:19.590Z,30.22
2018-07-02T09:25:47.785Z,30.41
2018-07-02T09:28:15.971Z,29.29
2018-07-02T09:30:44.142Z,29.69
2018-07-02T09:33:12.308Z,27.60
2018-07-02T09:35:40.619Z,28.59
2018-07-02T09:38:08.798Z,29.84
2018-07-02T09:40:36.986Z,28.14
2018-07-02T09:43:05.174Z,28.26
2018-07-02T09:45:33.322Z,27.78
2018-07-02T09:48:01.474Z,28.87
2018-07-02T09:50:29.643Z,28.05
2018-07-02T09:52:57.790Z,28.40
2018-07-02T09:55:25.958Z,29.24
2018-07-02T09:57:54.109Z,27.03
2018-07-02T10:00:22.282Z,26.73
2018-07-02T10:02:50.442Z,26.37
2018-07-02T10:05:18.622Z,26.61
2018-07-02T10:07:46.803Z,26.79
2018-07-02T10:10:15.001Z,26.81
2018-07-02T10:12:43.231Z,25.60
2018-07-02T10:15:11.303Z,25.86
2018-07-02T10:17:39.463Z,24.67
2018-07-02T10:20:07.661Z,27.13
2018-07-02T10:22:35.982Z,26.31
2018-07-02T10:25:04.458Z,27.03
2018-07-02T10:27:32.735Z,26.52
2018-07-02T10:30:01.019Z,24.58
2018-07-02T10:32:29.286Z,25.66
2018-07-02T10:34:57.430Z,27.12
2018-07-02T10:37:25.583Z,25.79
2018-07-02T10:39:53.759Z,24.12
2018-07-02T10:42:21.878Z,24.44
2018-07-02T10:44:50.042Z,23.34
2018-07-02T10:47:18.205Z,23.11
2018-07-02T10:49:46.450Z,25.63
2018-07-02T10:52:14.618Z,24.89
2018-07-02T10:54:42.802Z,23.34
2018-07-02T10:57:10.968Z,22.62
2018-07-02T10:59:39.118Z,22.73
2018-07-02T11:02:07.458Z,23.25
2018-07-02T11:04:35.618Z,24.94
2018-07-02T11:07:03.794Z,23.13
2018-07-02T11:09:31.977Z,24.57
2018-07-02T11:12:00.131Z,24.03
2018-07-02T11:14:28.310Z,24.22
2018-07-02T11:16:56.466Z,24.80
2018-07-02T11:19:24.630Z,24.58
2018-07-02T11:21:52.814Z,23.94
2018-07-02T11:24:20.971Z,23.47
2018-07-02T11:26:49.125Z,23.22
2018-07-02T11:29:17.282Z,25.41
2018-07-02T11:31:45.446Z,23.46
2018-07-02T11:34:13.606Z,22.01
2018-07-02T11:36:41.837Z,22.69
2018-07-02T11:39:11.118Z,22.57
2018-07-02T11:41:39.322Z,23.37
2018-07-02T11:44:07.707Z,22.73
2018-07-02T11:46:35.847Z,22.45
2018-07-02T11:49:04.034Z,22.59
2018-07-02T11:51:32.207Z,23.04
2018-07-02T11:54:00.374Z,23.38
2018-07-02T11:56:28.564Z,23.98
2018-07-02T11:58:56.915Z,22.66
2018-07-02T12:01:25.078Z,23.40
2018-07-02T12:03:53.228Z,23.85
2018-07-02T12:06:21.397Z,22.11
2018-07-02T12:08:49.566Z,22.81
2018-07-02T12:11:17.758Z,22.39
2018-07-02T12:13:45.935Z,22.43
2018-07-02T12:16:14.119Z,23.12
2018-07-02T12:18:42.282Z,22.79
2018-07-02T12:21:10.463Z,22.20
2018-07-02T12:23:38.626Z,22.55
2018-07-02T12:26:06.984Z,22.89
2018-07-02T12:28:35.135Z,22.61
2018-07-02T12:31:03.294Z,22.56
2018-07-02T12:33:31.603Z,22.02
2018-07-02T12:35:59.750Z,21.98
2018-07-02T12:38:27.906Z,23.41
2018-07-02T12:40:56.127Z,22.52
2018-07-02T12:43:24.293Z,23.34
2018-07-02T12:45:52.510Z,21.88
2018-07-02T12:48:20.718Z,25.34
2018-07-02T12:50:48.911Z,24.38
2018-07-02T12:53:17.062Z,22.34
2018-07-02T12:55:45.306Z,22.45
2018-07-02T12:58:13.481Z,22.56
2018-07-02T13:00:41.635Z,24.23
2018-07-02T13:03:09.799Z,24.14
2018-07-02T13:05:38.014Z,24.12
2018-07-02T13:08:06.222Z,24.02
2018-07-02T13:10:34.398Z,24.34
2018-07-02T13:13:02.641Z,24.59
2018-07-02T13:15:30.774Z,23.87
2018-07-02T13:17:59.023Z,24.60
2018-07-02T13:20:27.198Z,24.54
2018-07-02T13:22:55.406Z,24.26
2018-07-02T13:25:23.588Z,24.31
2018-07-02T13:27:51.770Z,24.63
2018-07-02T13:30:20.196Z,24.53
2018-07-02T13:32:48.379Z,24.60
2018-07-02T13:35:16.582Z,24.81
2018-07-02T13:37:44.827Z,24.13
2018-07-02T13:40:12.926Z,24.78
2018-07-02T13:42:41.102Z,24.65
2018-07-02T13:45:09.372Z,23.84
2018-07-02T13:47:37.500Z,23.49
2018-07-02T13:50:05.911Z,22.97
2018-07-02T13:52:34.371Z,25.00
2018-07-02T13:55:02.602Z,26.79
2018-07-02T13:57:30.875Z,24.01
2018-07-02T13:59:59.098Z,24.52
2018-07-02T14:02:27.511Z,23.40
2018-07-02T14:04:55.777Z,23.62
2018-07-02T14:07:24.189Z,24.84
2018-07-02T14:09:52.446Z,24.12
2018-07-02T14:12:20.746Z,23.49
2018-07-02T14:14:49.030Z,24.53
2018-07-02T14:17:17.646Z,23.78
2018-07-02T14:19:45.972Z,24.44
2018-07-02T14:22:14.251Z,24.47
2018-07-02T14:24:42.547Z,25.33
2018-07-02T14:27:10.787Z,23.14
2018-07-02T14:29:39.094Z,25.04
2018-07-02T14:32:07.272Z,25.89
2018-07-02T14:34:35.421Z,24.79
2018-07-02T14:37:03.570Z,26.06
2018-07-02T14:39:31.770Z,24.99
2018-07-02T14:41:59.915Z,24.71
2018-07-02T14:44:28.089Z,24.62
2018-07-02T14:46:56.454Z,24.19
2018-07-02T14:49:24.639Z,23.37
2018-07-02T14:51:52.818Z,24.32
2018-07-02T14:54:21.035Z,24.35
2018-07-02T14:56:49.190Z,23.93
2018-07-02T14:59:17.376Z,25.07
2018-07-02T15:01:45.556Z,23.44
2018-07-02T15:04:13.708Z,22.90
2018-07-02T15:06:41.958Z,24.74
2018-07-02T15:09:12.794Z,24.80
2018-07-02T15:11:41.741Z,24.52
2018-07-02T15:14:09.870Z,24.03
2018-07-02T15:16:38.062Z,24.71
2018-07-02T15:19:06.250Z,23.67
2018-07-02T15:21:34.423Z,23.60
2018-07-02T15:24:02.601Z,23.51
2018-07-02T15:26:30.770Z,24.83
2018-07-02T15:28:58.937Z,24.86
2018-07-02T15:31:27.111Z,24.00
2018-07-02T15:33:55.379Z,24.85
2018-07-02T15:36:23.442Z,24.79
2018-07-02T15:38:51.610Z,24.01
2018-07-02T15:41:19.795Z,24.39
2018-07-02T15:43:47.974Z,24.14
2018-07-02T15:46:16.122Z,24.37
2018-07-02T15:48:44.303Z,23.36
2018-07-02T15:51:12.466Z,23.08
2018-07-02T15:53:40.683Z,23.81
2018-07-02T15:56:08.838Z,24.84
2018-07-02T15:58:36.996Z,24.24
2018-07-02T16:01:05.164Z,23.54
2018-07-02T16:03:33.328Z,23.72
2018-07-02T16:06:01.474Z,23.77
2018-07-02T16:08:29.634Z,23.32
2018-07-02T16:10:57.801Z,24.07
2018-07-02T16:13:25.949Z,23.99
2018-07-02T16:15:54.105Z,23.99
2018-07-02T16:18:22.274Z,23.82
2018-07-02T16:20:50.434Z,25.21
2018-07-02T16:23:18.730Z,24.74
2018-07-02T16:25:46.899Z,24.49
2018-07-02T16:28:15.058Z,24.50
2018-07-02T16:30:43.274Z,25.00
2018-07-02T16:33:11.474Z,24.54
2018-07-02T16:35:39.726Z,25.79
2018-07-02T16:38:07.926Z,25.85
2018-07-02T16:40:36.102Z,26.57
2018-07-02T16:43:04.337Z,26.26
2018-07-02T16:45:32.519Z,26.98
2018-07-02T16:48:00.716Z,26.84
2018-07-02T16:50:28.822Z,25.51
2018-07-02T16:52:56.987Z,27.08
2018-07-02T16:55:25.146Z,26.29
2018-07-02T16:57:53.294Z,26.82
2018-07-02T17:00:21.535Z,27.36
2018-07-02T17:02:49.697Z,27.75
2018-07-02T17:05:17.856Z,27.40
2018-07-02T17:07:46.007Z,27.59
2018-07-02T17:10:14.160Z,27.33
2018-07-02T17:12:42.317Z,27.75
2018-07-02T17:15:10.474Z,27.90
2018-07-02T17:17:38.826Z,27.48
2018-07-02T17:20:07.514Z,27.58
2018-07-02T17:22:35.729Z,27.68
2018-07-02T17:25:04.158Z,28.09
2018-07-02T17:27:32.358Z,28.30
2018-07-02T17:30:00.539Z,28.08
2018-07-02T17:32:28.938Z,27.90
2018-07-02T17:34:57.131Z,28.51
2018-07-02T17:37:25.275Z,27.62
2018-07-02T17:39:53.674Z,27.95
2018-07-02T17:42:21.878Z,28.24
2018-07-02T17:44:50.042Z,27.64
2018-07-02T17:47:18.198Z,28.22
2018-07-02T17:49:46.363Z,27.83
2018-07-02T17:52:14.777Z,28.53
2018-07-02T17:54:43.258Z,27.87
2018-07-02T17:57:11.520Z,27.90
2018-07-02T17:59:39.947Z,28.67
2018-07-02T18:02:08.135Z,28.78
2018-07-02T18:04:36.620Z,29.21
2018-07-02T18:07:05.086Z,29.36
2018-07-02T18:09:33.333Z,29.59
2018-07-02T18:12:01.586Z,29.34
2018-07-02T18:14:29.771Z,28.34
2018-07-02T18:16:57.972Z,29.72
2018-07-02T18:19:26.197Z,29.39
2018-07-02T18:21:54.453Z,28.79
2018-07-02T18:24:22.648Z,30.06
2018-07-02T18:26:51.497Z,29.32
2018-07-02T18:29:19.710Z,29.23
2018-07-02T18:31:47.930Z,29.46
2018-07-02T18:34:16.094Z,29.93
2018-07-02T18:36:44.733Z,30.31
2018-07-02T18:39:13.291Z,29.90
2018-07-02T18:41:41.758Z,30.11
2018-07-02T18:44:10.165Z,29.71
2018-07-02T18:46:39.750Z,30.00
2018-07-02T18:49:07.995Z,30.84
2018-07-02T18:51:36.175Z,30.49
2018-07-02T18:54:04.406Z,30.85
2018-07-02T18:56:32.615Z,29.91
2018-07-02T18:59:00.978Z,29.89
2018-07-02T19:01:29.250Z,30.21
2018-07-02T19:03:57.421Z,30.21
2018-07-02T19:06:25.586Z,30.51
2018-07-02T19:08:53.762Z,30.74
2018-07-02T19:11:21.946Z,30.79
2018-07-02T19:13:50.217Z,31.08
2018-07-02T19:16:18.425Z,31.27
2018-07-02T19:18:46.604Z,31.03
2018-07-02T19:21:15.126Z,31.47
2018-07-02T19:23:43.441Z,31.03
2018-07-02T19:26:11.984Z,30.59
2018-07-02T19:28:40.235Z,31.37
2018-07-02T19:31:08.532Z,31.08
2018-07-02T19:33:36.870Z,31.83
2018-07-02T19:36:05.055Z,31.63
2018-07-02T19:38:33.299Z,31.88
2018-07-02T19:41:01.534Z,31.76
2018-07-02T19:43:29.642Z,32.07
2018-07-02T19:45:57.843Z,32.49
2018-07-02T19:48:26.018Z,32.17
2018-07-02T19:50:54.198Z,32.32
2018-07-02T19:53:22.368Z,32.21
2018-07-02T19:55:50.830Z,32.21
2018-07-02T19:58:19.046Z,32.88
2018-07-02T20:00:47.206Z,32.67
2018-07-02T20:03:15.408Z,32.49
2018-07-02T20:05:43.558Z,32.77
2018-07-02T20:08:11.725Z,33.19
2018-07-02T20:10:39.993Z,33.27
2018-07-02T20:13:08.102Z,33.69
2018-07-02T20:15:36.283Z,32.96
2018-07-02T20:18:04.439Z,33.87
2018-07-02T20:20:32.605Z,33.58
2018-07-02T20:23:00.838Z,33.75
2018-07-02T20:25:28.994Z,33.84
2018-07-02T20:27:57.158Z,33.46
2018-07-02T20:30:25.338Z,33.95
2018-07-02T20:32:53.535Z,33.42
2018-07-02T20:35:21.694Z,33.93
2018-07-02T20:37:49.854Z,33.38
2018-07-02T20:40:18.019Z,32.99
2018-07-02T20:42:46.200Z,33.49
2018-07-02T20:45:14.355Z,33.32
2018-07-02T20:47:42.514Z,33.41
2018-07-02T20:50:10.667Z,33.23
2018-07-02T20:52:38.822Z,33.49
2018-07-02T20:55:07.018Z,33.79
2018-07-02T20:57:35.186Z,33.74
2018-07-02T21:00:03.378Z,33.42
2018-07-02T21:02:31.646Z,33.61
2018-07-02T21:04:59.804Z,33.48
2018-07-02T21:07:27.970Z,33.61
2018-07-02T21:09:56.141Z,33.45
2018-07-02T21:12:24.290Z,33.65
2018-07-02T21:14:52.455Z,33.10
2018-07-02T21:17:20.631Z,33.23
2018-07-02T21:19:48.859Z,33.25
2018-07-02T21:22:17.034Z,33.05
2018-07-02T21:24:45.183Z,33.25
2018-07-02T21:27:13.351Z,33.31
2018-07-02T21:29:41.713Z,33.09
2018-07-02T21:32:09.898Z,32.98
2018-07-02T21:34:38.069Z,33.05
2018-07-02T21:37:06.438Z,33.38
2018-07-02T21:39:34.710Z,33.03
2018-07-02T21:42:02.935Z,33.33
2018-07-02T21:44:31.070Z,32.71
2018-07-02T21:46:59.234Z,32.50
2018-07-02T21:49:27.410Z,32.71
2018-07-02T21:51:55.602Z,33.13
2018-07-02T21:54:23.758Z,32.78
2018-07-02T21:56:51.942Z,33.00
2018-07-02T21:59:20.102Z,33.15
2018-07-02T22:01:48.331Z,33.53
2018-07-02T22:04:16.507Z,32.64
2018-07-02T22:06:45.787Z,33.36
2018-07-02T22:09:14.078Z,33.50
2018-07-02T22:11:42.219Z,33.40
2018-07-02T22:14:10.387Z,33.70
2018-07-02T22:16:38.601Z,33.65
2018-07-02T22:19:06.807Z,33.79
2018-07-02T22:21:34.953Z,33.57
2018-07-02T22:24:03.191Z,33.57
2018-07-02T22:26:33.065Z,33.99
2018-07-02T22:29:01.238Z,33.48
2018-07-02T22:31:29.406Z,33.97
2018-07-02T22:33:57.563Z,33.97
2018-07-02T22:36:25.770Z,34.02
2018-07-02T22:38:53.911Z,34.09
2018-07-02T22:41:22.318Z,34.04
2018-07-02T22:43:50.562Z,34.66
2018-07-02T22:46:18.671Z,34.06
2018-07-02T22:48:46.833Z,34.46
2018-07-02T22:51:15.006Z,34.45
2018-07-02T22:53:43.179Z,34.38
2018-07-02T22:56:11.342Z,34.71
2018-07-02T22:58:39.510Z,34.58
2018-07-02T23:01:07.695Z,34.83
2018-07-02T23:03:35.862Z,34.79
2018-07-02T23:06:04.038Z,35.29
2018-07-02T23:08:32.192Z,35.41
2018-07-02T23:11:00.350Z,35.61
2018-07-02T23:13:28.511Z,35.66
2018-07-02T23:16:01.542Z,35.61
2018-07-02T23:18:30.496Z,35.15
2018-07-02T23:20:58.928Z,35.98
2018-07-02T23:23:27.089Z,36.05
2018-07-02T23:25:55.269Z,35.91
2018-07-02T23:28:23.502Z,35.86
2018-07-02T23:30:51.697Z,35.87
2018-07-02T23:33:19.903Z,36.15
2018-07-02T23:35:48.174Z,36.25
2018-07-02T23:38:16.338Z,36.28
2018-07-02T23:40:44.498Z,35.90
2018-07-02T23:43:12.658Z,36.04
2018-07-02T23:45:40.822Z,36.26
2018-07-02T23:48:08.978Z,36.85
2018-07-02T23:50:37.160Z,36.92
2018-07-02T23:53:05.367Z,37.17
2018-07-02T23:55:33.537Z,37.24
2018-07-02T23:58:01.792Z,36.74
